createdAt,value
2018-01-04T00:00:22.516Z,992.82
2018-01-04T00:01:03.050Z,992.82
2018-01-04T00:01:43.571Z,992.74
2018-01-04T00:02:24.130Z,992.78
2018-01-04T00:03:04.680Z,992.78
2018-01-04T00:03:45.220Z,992.78
2018-01-04T00:04:25.777Z,992.76
2018-01-04T00:05:06.301Z,992.79
2018-01-04T00:05:46.944Z,992.87
2018-01-04T00:06:28.456Z,992.79
2018-01-04T00:07:09.004Z,992.81
2018-01-04T00:07:49.528Z,992.72
2018-01-04T00:08:30.110Z,992.73
2018-01-04T00:09:10.665Z,992.77
2018-01-04T00:09:51.192Z,992.69
2018-01-04T00:10:31.716Z,992.8
2018-01-04T00:11:12.292Z,992.75
2018-01-04T00:11:52.898Z,992.67
2018-01-04T00:12:33.478Z,992.65
2018-01-04T00:13:13.994Z,992.68
2018-01-04T00:13:54.510Z,992.69
2018-01-04T00:14:35.046Z,992.66
2018-01-04T00:15:15.543Z,992.76
2018-01-04T00:15:56.120Z,992.82
2018-01-04T00:16:36.615Z,992.74
2018-01-04T00:17:17.180Z,992.79
2018-01-04T00:17:57.753Z,992.79
2018-01-04T00:18:38.266Z,992.77
2018-01-04T00:19:18.825Z,992.73
2018-01-04T00:19:59.365Z,992.71
2018-01-04T00:20:39.870Z,992.7
2018-01-04T00:21:20.431Z,992.71
2018-01-04T00:22:00.940Z,992.75
2018-01-04T00:22:41.477Z,992.71
2018-01-04T00:23:22.024Z,992.74
2018-01-04T00:24:02.568Z,992.73
2018-01-04T00:24:43.114Z,992.7
2018-01-04T00:25:23.626Z,992.72
2018-01-04T00:26:04.238Z,992.69
2018-01-04T00:26:44.767Z,992.75
2018-01-04T00:27:25.327Z,992.65
2018-01-04T00:28:05.826Z,992.75
2018-01-04T00:28:46.375Z,992.7
2018-01-04T00:29:26.892Z,992.75
2018-01-04T00:30:07.419Z,992.71
2018-01-04T00:30:47.966Z,992.62
2018-01-04T00:31:28.483Z,992.65
2018-01-04T00:32:09.052Z,992.61
2018-01-04T00:32:49.531Z,992.65
2018-01-04T00:33:30.067Z,992.53
2018-01-04T00:34:10.606Z,992.64
2018-01-04T00:34:51.161Z,992.63
2018-01-04T00:35:31.695Z,992.66
2018-01-04T00:36:12.173Z,992.63
2018-01-04T00:36:52.724Z,992.65
2018-01-04T00:37:33.313Z,992.63
2018-01-04T00:38:13.782Z,992.57
2018-01-04T00:38:54.315Z,992.53
2018-01-04T00:39:34.854Z,992.51
2018-01-04T00:40:15.418Z,992.49
2018-01-04T00:40:55.954Z,992.53
2018-01-04T00:41:36.456Z,992.57
2018-01-04T00:42:17.075Z,992.6
2018-01-04T00:42:57.552Z,992.6
2018-01-04T00:43:38.068Z,992.53
2018-01-04T00:44:18.603Z,992.59
2018-01-04T00:44:59.138Z,992.57
2018-01-04T00:45:39.792Z,992.54
2018-01-04T00:46:20.382Z,992.55
2018-01-04T00:47:00.873Z,992.48
2018-01-04T00:47:41.404Z,992.49
2018-01-04T00:48:21.978Z,992.44
2018-01-04T00:49:02.483Z,992.52
2018-01-04T00:49:42.995Z,992.51
2018-01-04T00:50:23.493Z,992.55
2018-01-04T00:51:04.053Z,992.48
2018-01-04T00:51:44.607Z,992.52
2018-01-04T00:52:25.147Z,992.53
2018-01-04T00:53:05.679Z,992.56
2018-01-04T00:53:46.277Z,992.57
2018-01-04T00:54:26.793Z,992.61
2018-01-04T00:55:07.353Z,992.56
2018-01-04T00:55:47.868Z,992.53
2018-01-04T00:56:28.400Z,992.54
2018-01-04T00:57:08.897Z,992.57
2018-01-04T00:57:50.248Z,992.57
2018-01-04T00:58:30.019Z,992.51
2018-01-04T00:59:10.533Z,992.44
2018-01-04T00:59:51.077Z,992.52
2018-01-04T01:00:31.612Z,992.56
2018-01-04T01:01:12.116Z,992.56
2018-01-04T01:01:52.642Z,992.52
2018-01-04T01:02:33.209Z,992.53
2018-01-04T01:03:13.734Z,992.55
2018-01-04T01:03:54.266Z,992.49
2018-01-04T01:04:34.778Z,992.51
2018-01-04T01:05:15.330Z,992.47
2018-01-04T01:05:55.856Z,992.5
2018-01-04T01:06:36.396Z,992.55
2018-01-04T01:07:16.977Z,992.55
2018-01-04T01:07:57.501Z,992.6
2018-01-04T01:08:38.042Z,992.59
2018-01-04T01:09:18.542Z,992.54
2018-01-04T01:09:59.100Z,992.61
2018-01-04T01:10:39.637Z,992.74
2018-01-04T01:11:20.158Z,992.65
2018-01-04T01:12:00.695Z,992.72
2018-01-04T01:12:41.231Z,992.68
2018-01-04T01:13:21.807Z,992.69
2018-01-04T01:14:02.310Z,992.6
2018-01-04T01:14:42.833Z,992.62
2018-01-04T01:15:23.413Z,992.62
2018-01-04T01:16:03.920Z,992.57
2018-01-04T01:16:44.420Z,992.64
2018-01-04T01:17:24.932Z,992.55
2018-01-04T01:18:05.462Z,992.57
2018-01-04T01:18:46.000Z,992.6
2018-01-04T01:19:26.526Z,992.63
2018-01-04T01:20:07.052Z,992.68
2018-01-04T01:20:47.576Z,992.63
2018-01-04T01:21:28.163Z,992.7
2018-01-04T01:22:08.682Z,992.75
2018-01-04T01:22:49.194Z,992.74
2018-01-04T01:23:29.770Z,992.72
2018-01-04T01:24:10.308Z,992.75
2018-01-04T01:24:50.866Z,992.7
2018-01-04T01:25:31.362Z,992.7
2018-01-04T01:26:11.880Z,992.66
2018-01-04T01:26:52.418Z,992.7
2018-01-04T01:27:32.945Z,992.78
2018-01-04T01:28:13.488Z,992.75
2018-01-04T01:28:54.024Z,992.65
2018-01-04T01:29:34.583Z,992.66
2018-01-04T01:30:15.084Z,992.73
2018-01-04T01:30:55.634Z,992.53
2018-01-04T01:31:36.161Z,992.53
2018-01-04T01:32:16.676Z,992.53
2018-01-04T01:32:57.194Z,992.56
2018-01-04T01:33:37.821Z,992.57
2018-01-04T01:34:18.364Z,992.6
2018-01-04T01:34:58.880Z,992.48
2018-01-04T01:35:39.377Z,992.58
2018-01-04T01:36:19.912Z,992.47
2018-01-04T01:37:00.477Z,992.45
2018-01-04T01:37:41.068Z,992.47
2018-01-04T01:38:21.578Z,992.49
2018-01-04T01:39:02.983Z,992.51
2018-01-04T01:39:43.606Z,992.46
2018-01-04T01:40:24.463Z,992.4
2018-01-04T01:41:05.263Z,992.45
2018-01-04T01:41:47.101Z,992.34
2018-01-04T01:42:27.682Z,992.28
2018-01-04T01:43:08.281Z,992.27
2018-01-04T01:43:48.863Z,992.26
2018-01-04T01:44:29.306Z,992.24
2018-01-04T01:45:09.887Z,992.24
2018-01-04T01:45:50.396Z,992.21
2018-01-04T01:46:30.935Z,992.23
2018-01-04T01:47:11.449Z,992.12
2018-01-04T01:47:51.957Z,992.2
2018-01-04T01:48:32.499Z,992.16
2018-01-04T01:49:13.045Z,992.08
2018-01-04T01:49:53.610Z,992.19
2018-01-04T01:50:34.152Z,992.19
2018-01-04T01:51:14.733Z,992.13
2018-01-04T01:51:55.284Z,992.24
2018-01-04T01:52:35.759Z,992.3
2018-01-04T01:53:16.291Z,992.21
2018-01-04T01:53:56.815Z,992.16
2018-01-04T01:54:37.358Z,992.19
2018-01-04T01:55:17.869Z,992.18
2018-01-04T01:55:58.395Z,992.15
2018-01-04T01:56:38.910Z,992.14
2018-01-04T01:57:19.444Z,992.16
2018-01-04T01:57:59.951Z,992.17
2018-01-04T01:58:40.504Z,992.2
2018-01-04T01:59:21.070Z,992.27
2018-01-04T02:00:01.552Z,992.15
2018-01-04T02:00:42.084Z,992.2
2018-01-04T02:01:22.679Z,992.12
2018-01-04T02:02:03.233Z,992.08
2018-01-04T02:02:43.719Z,992.14
2018-01-04T02:03:24.830Z,992.1
2018-01-04T02:04:05.380Z,992.03
2018-01-04T02:04:45.884Z,992.06
2018-01-04T02:05:26.397Z,992.03
2018-01-04T02:06:06.944Z,992.05
2018-01-04T02:06:47.521Z,991.95
2018-01-04T02:07:28.091Z,991.96
2018-01-04T02:08:08.594Z,991.95
2018-01-04T02:08:49.122Z,991.96
2018-01-04T02:09:29.663Z,991.92
2018-01-04T02:10:10.181Z,991.92
2018-01-04T02:10:50.758Z,991.91
2018-01-04T02:11:31.269Z,991.91
2018-01-04T02:12:11.831Z,991.86
2018-01-04T02:12:52.333Z,991.95
2018-01-04T02:13:32.861Z,991.92
2018-01-04T02:14:13.404Z,991.92
2018-01-04T02:14:53.920Z,991.98
2018-01-04T02:15:34.525Z,992.1
2018-01-04T02:16:14.989Z,992
2018-01-04T02:16:55.620Z,992.04
2018-01-04T02:17:36.091Z,992.08
2018-01-04T02:18:16.622Z,992.05
2018-01-04T02:18:57.150Z,992.02
2018-01-04T02:19:37.713Z,992.09
2018-01-04T02:20:18.221Z,992.06
2018-01-04T02:20:58.745Z,991.99
2018-01-04T02:21:39.286Z,991.96
2018-01-04T02:22:19.864Z,992.02
2018-01-04T02:23:00.362Z,991.88
2018-01-04T02:23:40.893Z,991.94
2018-01-04T02:24:21.400Z,991.89
2018-01-04T02:25:01.928Z,991.9
2018-01-04T02:25:42.485Z,991.86
2018-01-04T02:26:22.957Z,991.92
2018-01-04T02:27:03.500Z,991.88
2018-01-04T02:27:44.006Z,991.86
2018-01-04T02:28:24.512Z,991.87
2018-01-04T02:29:05.114Z,991.85
2018-01-04T02:29:45.589Z,991.88
2018-01-04T02:30:26.159Z,991.82
2018-01-04T02:31:06.711Z,991.82
2018-01-04T02:31:47.234Z,991.81
2018-01-04T02:32:27.793Z,991.83
2018-01-04T02:33:08.364Z,991.89
2018-01-04T02:33:48.878Z,991.79
2018-01-04T02:34:29.427Z,991.8
2018-01-04T02:35:09.998Z,991.87
2018-01-04T02:35:50.485Z,991.83
2018-01-04T02:36:31.044Z,991.85
2018-01-04T02:37:11.625Z,991.86
2018-01-04T02:37:52.152Z,991.84
2018-01-04T02:38:32.701Z,991.75
2018-01-04T02:39:13.193Z,991.84
2018-01-04T02:39:53.767Z,991.78
2018-01-04T02:40:34.423Z,991.72
2018-01-04T02:41:14.841Z,991.73
2018-01-04T02:41:55.378Z,991.74
2018-01-04T02:42:35.920Z,991.7
2018-01-04T02:43:16.403Z,991.71
2018-01-04T02:43:56.980Z,991.68
2018-01-04T02:44:37.532Z,991.69
2018-01-04T02:45:18.052Z,991.68
2018-01-04T02:45:58.642Z,991.64
2018-01-04T02:46:39.177Z,991.56
2018-01-04T02:47:19.715Z,991.59
2018-01-04T02:48:00.270Z,991.62
2018-01-04T02:48:40.834Z,991.65
2018-01-04T02:49:21.384Z,991.53
2018-01-04T02:50:01.911Z,991.58
2018-01-04T02:50:42.410Z,991.63
2018-01-04T02:51:22.933Z,991.7
2018-01-04T02:52:03.496Z,991.63
2018-01-04T02:52:44.046Z,991.62
2018-01-04T02:53:24.521Z,991.66
2018-01-04T02:54:05.075Z,991.68
2018-01-04T02:54:45.611Z,991.63
2018-01-04T02:55:26.150Z,991.66
2018-01-04T02:56:06.674Z,991.59
2018-01-04T02:56:47.239Z,991.76
2018-01-04T02:57:27.808Z,991.69
2018-01-04T02:58:08.331Z,991.69
2018-01-04T02:58:48.864Z,991.67
2018-01-04T02:59:29.384Z,991.72
2018-01-04T03:00:09.891Z,991.72
2018-01-04T03:00:50.648Z,991.7
2018-01-04T03:01:31.042Z,991.72
2018-01-04T03:02:11.570Z,991.81
2018-01-04T03:02:52.119Z,991.86
2018-01-04T03:03:32.656Z,991.84
2018-01-04T03:04:13.188Z,991.9
2018-01-04T03:04:53.788Z,991.84
2018-01-04T03:05:34.288Z,991.9
2018-01-04T03:06:15.012Z,991.78
2018-01-04T03:06:55.489Z,991.75
2018-01-04T03:07:36.041Z,991.88
2018-01-04T03:08:16.608Z,991.82
2018-01-04T03:08:57.152Z,991.81
2018-01-04T03:09:37.662Z,991.78
2018-01-04T03:10:18.217Z,991.64
2018-01-04T03:10:58.789Z,991.67
2018-01-04T03:11:39.309Z,991.71
2018-01-04T03:12:19.855Z,991.55
2018-01-04T03:13:00.321Z,991.54
2018-01-04T03:13:40.884Z,991.55
2018-01-04T03:14:21.817Z,991.48
2018-01-04T03:15:02.407Z,991.48
2018-01-04T03:15:42.964Z,991.43
2018-01-04T03:16:23.482Z,991.42
2018-01-04T03:17:04.021Z,991.53
2018-01-04T03:17:45.288Z,991.4
2018-01-04T03:18:25.058Z,991.39
2018-01-04T03:19:05.610Z,991.42
2018-01-04T03:19:46.130Z,991.53
2018-01-04T03:20:26.700Z,991.51
2018-01-04T03:21:07.225Z,991.41
2018-01-04T03:21:47.765Z,991.52
2018-01-04T03:22:28.383Z,991.47
2018-01-04T03:23:08.960Z,991.48
2018-01-04T03:23:49.478Z,991.54
2018-01-04T03:24:30.020Z,991.48
2018-01-04T03:25:10.566Z,991.49
2018-01-04T03:25:51.112Z,991.47
2018-01-04T03:26:31.635Z,991.5
2018-01-04T03:27:12.198Z,991.48
2018-01-04T03:27:52.696Z,991.6
2018-01-04T03:28:33.285Z,991.58
2018-01-04T03:29:13.768Z,991.61
2018-01-04T03:29:54.316Z,991.65
2018-01-04T03:30:34.851Z,991.72
2018-01-04T03:31:15.391Z,991.62
2018-01-04T03:31:55.921Z,991.73
2018-01-04T03:32:36.412Z,991.6
2018-01-04T03:33:16.949Z,991.7
2018-01-04T03:33:57.482Z,991.71
2018-01-04T03:34:38.034Z,991.68
2018-01-04T03:35:18.562Z,991.65
2018-01-04T03:35:59.105Z,991.66
2018-01-04T03:36:39.608Z,991.61
2018-01-04T03:37:20.166Z,991.71
2018-01-04T03:38:00.668Z,991.68
2018-01-04T03:38:41.199Z,991.67
2018-01-04T03:39:21.727Z,991.62
2018-01-04T03:40:02.249Z,991.57
2018-01-04T03:40:42.786Z,991.59
2018-01-04T03:41:23.309Z,991.52
2018-01-04T03:42:03.832Z,991.51
2018-01-04T03:42:44.351Z,991.49
2018-01-04T03:43:25.228Z,991.46
2018-01-04T03:44:05.689Z,991.48
2018-01-04T03:44:47.377Z,991.37
2018-01-04T03:45:28.123Z,991.51
2018-01-04T03:46:08.659Z,991.47
2018-01-04T03:46:49.226Z,991.49
2018-01-04T03:47:29.741Z,991.29
2018-01-04T03:48:10.273Z,991.43
2018-01-04T03:48:50.765Z,991.39
2018-01-04T03:49:31.329Z,991.35
2018-01-04T03:50:11.845Z,991.36
2018-01-04T03:50:52.364Z,991.38
2018-01-04T03:51:32.924Z,991.42
2018-01-04T03:52:13.458Z,991.46
2018-01-04T03:52:53.990Z,991.45
2018-01-04T03:53:34.504Z,991.41
2018-01-04T03:54:15.032Z,991.39
2018-01-04T03:54:55.590Z,991.5
2018-01-04T03:55:36.111Z,991.4
2018-01-04T03:56:16.616Z,991.44
2018-01-04T03:56:57.188Z,991.46
2018-01-04T03:57:37.667Z,991.47
2018-01-04T03:58:18.216Z,991.51
2018-01-04T03:58:58.738Z,991.43
2018-01-04T03:59:39.254Z,991.58
2018-01-04T04:00:19.798Z,991.52
2018-01-04T04:01:00.349Z,991.63
2018-01-04T04:01:40.869Z,991.5
2018-01-04T04:02:21.471Z,991.48
2018-01-04T04:03:02.004Z,991.53
2018-01-04T04:03:42.571Z,991.54
2018-01-04T04:04:23.118Z,991.46
2018-01-04T04:05:03.631Z,991.46
2018-01-04T04:05:44.196Z,991.5
2018-01-04T04:06:24.745Z,991.53
2018-01-04T04:07:05.248Z,991.48
2018-01-04T04:07:45.788Z,991.51
2018-01-04T04:08:26.296Z,991.52
2018-01-04T04:09:06.824Z,991.46
2018-01-04T04:09:47.416Z,991.44
2018-01-04T04:10:27.972Z,991.44
2018-01-04T04:11:08.459Z,991.5
2018-01-04T04:11:48.978Z,991.5
2018-01-04T04:12:29.547Z,991.47
2018-01-04T04:13:10.101Z,991.51
2018-01-04T04:13:50.588Z,991.5
2018-01-04T04:14:31.159Z,991.45
2018-01-04T04:15:11.683Z,991.45
2018-01-04T04:15:52.237Z,991.49
2018-01-04T04:16:32.750Z,991.53
2018-01-04T04:17:13.296Z,991.48
2018-01-04T04:17:53.840Z,991.43
2018-01-04T04:18:34.352Z,991.42
2018-01-04T04:19:14.878Z,991.38
2018-01-04T04:19:55.437Z,991.37
2018-01-04T04:20:35.943Z,991.49
2018-01-04T04:21:16.470Z,991.44
2018-01-04T04:21:57.033Z,991.5
2018-01-04T04:22:37.579Z,991.46
2018-01-04T04:23:18.099Z,991.51
2018-01-04T04:23:58.636Z,991.51
2018-01-04T04:24:39.182Z,991.58
2018-01-04T04:25:19.718Z,991.6
2018-01-04T04:26:00.286Z,991.69
2018-01-04T04:26:40.850Z,991.65
2018-01-04T04:27:21.371Z,991.67
2018-01-04T04:28:01.909Z,991.72
2018-01-04T04:28:42.433Z,991.78
2018-01-04T04:29:22.960Z,991.68
2018-01-04T04:30:03.488Z,991.69
2018-01-04T04:30:44.029Z,991.67
2018-01-04T04:31:24.561Z,991.64
2018-01-04T04:32:05.104Z,991.71
2018-01-04T04:32:45.600Z,991.78
2018-01-04T04:33:26.136Z,991.69
2018-01-04T04:34:06.683Z,991.67
2018-01-04T04:34:47.234Z,991.67
2018-01-04T04:35:27.790Z,991.74
2018-01-04T04:36:08.287Z,991.74
2018-01-04T04:36:48.843Z,991.75
2018-01-04T04:37:29.394Z,991.73
2018-01-04T04:38:09.951Z,991.68
2018-01-04T04:38:50.479Z,991.72
2018-01-04T04:39:31.007Z,991.69
2018-01-04T04:40:11.696Z,991.63
2018-01-04T04:40:52.162Z,991.67
2018-01-04T04:41:32.706Z,991.62
2018-01-04T04:42:13.258Z,991.62
2018-01-04T04:42:53.762Z,991.63
2018-01-04T04:43:34.297Z,991.58
2018-01-04T04:44:14.813Z,991.56
2018-01-04T04:44:55.347Z,991.57
2018-01-04T04:45:35.871Z,991.6
2018-01-04T04:46:16.429Z,991.54
2018-01-04T04:46:57.004Z,991.55
2018-01-04T04:47:37.546Z,991.52
2018-01-04T04:48:18.052Z,991.51
2018-01-04T04:48:58.586Z,991.46
2018-01-04T04:49:39.096Z,991.6
2018-01-04T04:50:19.616Z,991.42
2018-01-04T04:51:00.187Z,991.38
2018-01-04T04:51:40.685Z,991.4
2018-01-04T04:52:21.243Z,991.37
2018-01-04T04:53:01.736Z,991.38
2018-01-04T04:53:42.248Z,991.32
2018-01-04T04:54:22.796Z,991.26
2018-01-04T04:55:03.352Z,991.34
2018-01-04T04:55:43.918Z,991.28
2018-01-04T04:56:24.406Z,991.28
2018-01-04T04:57:04.940Z,991.28
2018-01-04T04:57:45.498Z,991.33
2018-01-04T04:58:26.051Z,991.36
2018-01-04T04:59:06.625Z,991.38
2018-01-04T04:59:47.137Z,991.41
2018-01-04T05:00:27.679Z,991.34
2018-01-04T05:01:08.224Z,991.26
2018-01-04T05:01:48.776Z,991.29
2018-01-04T05:02:29.343Z,991.26
2018-01-04T05:03:09.862Z,991.21
2018-01-04T05:03:50.395Z,991.18
2018-01-04T05:04:30.904Z,991.19
2018-01-04T05:05:11.420Z,991.19
2018-01-04T05:05:51.951Z,991.13
2018-01-04T05:06:32.504Z,991.24
2018-01-04T05:07:12.994Z,991.25
2018-01-04T05:07:53.543Z,991.31
2018-01-04T05:08:34.071Z,991.28
2018-01-04T05:09:14.607Z,991.29
2018-01-04T05:09:55.154Z,991.32
2018-01-04T05:10:35.677Z,991.27
2018-01-04T05:11:16.207Z,991.35
2018-01-04T05:11:56.722Z,991.28
2018-01-04T05:12:37.267Z,991.26
2018-01-04T05:13:17.775Z,991.2
2018-01-04T05:13:58.304Z,991.27
2018-01-04T05:14:38.871Z,991.29
2018-01-04T05:15:19.432Z,991.28
2018-01-04T05:15:59.914Z,991.38
2018-01-04T05:16:40.436Z,991.45
2018-01-04T05:17:20.964Z,991.47
2018-01-04T05:18:01.518Z,991.4
2018-01-04T05:18:42.054Z,991.33
2018-01-04T05:19:22.590Z,991.35
2018-01-04T05:20:03.161Z,991.33
2018-01-04T05:20:43.720Z,991.28
2018-01-04T05:21:24.266Z,991.28
2018-01-04T05:22:04.791Z,991.32
2018-01-04T05:22:45.325Z,991.3
2018-01-04T05:23:25.827Z,991.28
2018-01-04T05:24:06.372Z,991.38
2018-01-04T05:24:46.927Z,991.4
2018-01-04T05:25:27.466Z,991.42
2018-01-04T05:26:08.010Z,991.43
2018-01-04T05:26:48.575Z,991.46
2018-01-04T05:27:29.069Z,991.38
2018-01-04T05:28:09.612Z,991.27
2018-01-04T05:28:50.142Z,991.3
2018-01-04T05:29:30.663Z,991.27
2018-01-04T05:30:11.182Z,991.25
2018-01-04T05:30:51.723Z,991.26
2018-01-04T05:31:32.217Z,991.18
2018-01-04T05:32:12.769Z,991.22
2018-01-04T05:32:53.318Z,991.25
2018-01-04T05:33:33.857Z,991.2
2018-01-04T05:34:14.374Z,991.14
2018-01-04T05:34:54.917Z,991.2
2018-01-04T05:35:35.473Z,991.13
2018-01-04T05:36:16.026Z,991.11
2018-01-04T05:36:56.604Z,991.24
2018-01-04T05:37:37.115Z,991.18
2018-01-04T05:38:17.702Z,991.24
2018-01-04T05:38:58.209Z,991.23
2018-01-04T05:39:38.759Z,991.17
2018-01-04T05:40:19.275Z,991.25
2018-01-04T05:40:59.842Z,991.17
2018-01-04T05:41:40.319Z,991.16
2018-01-04T05:42:20.969Z,991.25
2018-01-04T05:43:01.538Z,991.22
2018-01-04T05:43:42.063Z,991.26
2018-01-04T05:44:22.657Z,991.32
2018-01-04T05:45:03.172Z,991.35
2018-01-04T05:45:43.652Z,991.33
2018-01-04T05:46:24.196Z,991.41
2018-01-04T05:47:04.726Z,991.31
2018-01-04T05:47:45.254Z,991.26
2018-01-04T05:48:25.779Z,991.3
2018-01-04T05:49:06.301Z,991.21
2018-01-04T05:49:46.901Z,991.16
2018-01-04T05:50:27.414Z,991.26
2018-01-04T05:51:07.964Z,991.19
2018-01-04T05:51:48.523Z,991.19
2018-01-04T05:52:29.091Z,991.11
2018-01-04T05:53:09.610Z,991.15
2018-01-04T05:53:50.121Z,991.06
2018-01-04T05:54:30.668Z,991.16
2018-01-04T05:55:11.248Z,991.13
2018-01-04T05:55:51.749Z,991.12
2018-01-04T05:56:32.289Z,991.12
2018-01-04T05:57:12.803Z,991.11
2018-01-04T05:57:53.358Z,991.05
2018-01-04T05:58:33.932Z,991.03
2018-01-04T05:59:14.472Z,990.98
2018-01-04T05:59:54.982Z,990.97
2018-01-04T06:00:35.533Z,990.97
2018-01-04T06:01:16.069Z,990.99
2018-01-04T06:01:56.603Z,990.9
2018-01-04T06:02:37.121Z,990.94
2018-01-04T06:03:17.667Z,990.89
2018-01-04T06:03:59.099Z,990.88
2018-01-04T06:04:39.643Z,990.94
2018-01-04T06:05:20.191Z,990.95
2018-01-04T06:06:00.731Z,990.94
2018-01-04T06:06:41.305Z,990.94
2018-01-04T06:07:21.800Z,990.94
2018-01-04T06:08:03.012Z,990.96
2018-01-04T06:08:43.614Z,990.99
2018-01-04T06:09:24.160Z,990.97
2018-01-04T06:10:04.696Z,990.96
2018-01-04T06:10:45.232Z,990.96
2018-01-04T06:11:25.767Z,990.97
2018-01-04T06:12:06.322Z,990.94
2018-01-04T06:12:46.874Z,990.98
2018-01-04T06:13:27.357Z,990.98
2018-01-04T06:14:07.904Z,990.93
2018-01-04T06:14:48.440Z,990.91
2018-01-04T06:15:28.960Z,990.94
2018-01-04T06:16:09.570Z,991
2018-01-04T06:16:50.129Z,991
2018-01-04T06:17:30.630Z,991
2018-01-04T06:18:11.176Z,991.03
2018-01-04T06:18:51.710Z,991.06
2018-01-04T06:19:32.315Z,991.15
2018-01-04T06:20:12.817Z,991.16
2018-01-04T06:20:53.350Z,991.13
2018-01-04T06:21:33.851Z,991.12
2018-01-04T06:22:14.400Z,991.12
2018-01-04T06:22:54.960Z,991.11
2018-01-04T06:23:35.489Z,991.12
2018-01-04T06:24:16.022Z,991.1
2018-01-04T06:24:56.588Z,991
2018-01-04T06:25:37.060Z,991.06
2018-01-04T06:26:17.625Z,991.1
2018-01-04T06:26:58.155Z,991.07
2018-01-04T06:27:38.692Z,991.05
2018-01-04T06:28:19.201Z,991.02
2018-01-04T06:28:59.780Z,991.05
2018-01-04T06:29:40.288Z,991.01
2018-01-04T06:30:20.830Z,991.01
2018-01-04T06:31:01.367Z,991.02
2018-01-04T06:31:41.895Z,990.96
2018-01-04T06:32:22.449Z,990.89
2018-01-04T06:33:02.990Z,990.89
2018-01-04T06:33:43.514Z,990.86
2018-01-04T06:34:24.110Z,990.86
2018-01-04T06:35:04.655Z,990.85
2018-01-04T06:35:45.204Z,990.8
2018-01-04T06:36:25.710Z,990.77
2018-01-04T06:37:06.278Z,990.74
2018-01-04T06:37:46.783Z,990.75
2018-01-04T06:38:27.337Z,990.71
2018-01-04T06:39:07.861Z,990.75
2018-01-04T06:39:48.383Z,990.75
2018-01-04T06:40:28.909Z,990.72
2018-01-04T06:41:09.492Z,990.72
2018-01-04T06:41:50.033Z,990.66
2018-01-04T06:42:30.525Z,990.7
2018-01-04T06:43:11.094Z,990.66
2018-01-04T06:43:51.658Z,990.67
2018-01-04T06:44:32.222Z,990.63
2018-01-04T06:45:12.710Z,990.63
2018-01-04T06:45:53.247Z,990.67
2018-01-04T06:46:33.785Z,990.67
2018-01-04T06:47:14.298Z,990.63
2018-01-04T06:47:54.859Z,990.63
2018-01-04T06:48:35.391Z,990.61
2018-01-04T06:49:15.978Z,990.52
2018-01-04T06:49:56.489Z,990.5
2018-01-04T06:50:37.019Z,990.5
2018-01-04T06:51:17.614Z,990.52
2018-01-04T06:51:58.134Z,990.51
2018-01-04T06:52:38.645Z,990.52
2018-01-04T06:53:19.189Z,990.5
2018-01-04T06:53:59.691Z,990.48
2018-01-04T06:54:40.294Z,990.49
2018-01-04T06:55:20.835Z,990.51
2018-01-04T06:56:01.392Z,990.5
2018-01-04T06:56:41.886Z,990.4
2018-01-04T06:57:22.432Z,990.45
2018-01-04T06:58:02.957Z,990.44
2018-01-04T06:58:43.499Z,990.42
2018-01-04T06:59:24.052Z,990.37
2018-01-04T07:00:04.575Z,990.37
2018-01-04T07:00:45.134Z,990.36
2018-01-04T07:01:25.637Z,990.4
2018-01-04T07:02:06.206Z,990.42
2018-01-04T07:02:46.718Z,990.36
2018-01-04T07:03:27.286Z,990.31
2018-01-04T07:04:07.828Z,990.32
2018-01-04T07:04:48.357Z,990.26
2018-01-04T07:05:28.912Z,990.24
2018-01-04T07:06:09.456Z,990.22
2018-01-04T07:06:49.963Z,990.23
2018-01-04T07:07:30.524Z,990.24
2018-01-04T07:08:11.104Z,990.2
2018-01-04T07:08:51.567Z,990.2
2018-01-04T07:09:32.084Z,990.16
2018-01-04T07:10:12.631Z,990.16
2018-01-04T07:10:53.168Z,990.14
2018-01-04T07:11:33.722Z,990.16
2018-01-04T07:12:14.259Z,990.12
2018-01-04T07:12:54.794Z,990.12
2018-01-04T07:13:35.364Z,990.15
2018-01-04T07:14:15.896Z,990.18
2018-01-04T07:14:56.450Z,990.16
2018-01-04T07:15:36.935Z,990.18
2018-01-04T07:16:17.524Z,990.17
2018-01-04T07:16:58.052Z,990.15
2018-01-04T07:17:38.640Z,990.15
2018-01-04T07:18:19.148Z,990.13
2018-01-04T07:18:59.700Z,990.06
2018-01-04T07:19:40.211Z,990.09
2018-01-04T07:20:20.750Z,990.03
2018-01-04T07:21:01.376Z,990.03
2018-01-04T07:21:41.915Z,989.95
2018-01-04T07:22:22.437Z,989.97
2018-01-04T07:23:02.972Z,989.94
2018-01-04T07:23:43.537Z,989.95
2018-01-04T07:24:24.089Z,989.94
2018-01-04T07:25:04.647Z,989.95
2018-01-04T07:25:45.177Z,989.99
2018-01-04T07:26:25.708Z,990.03
2018-01-04T07:27:06.273Z,990.13
2018-01-04T07:27:46.830Z,990.17
2018-01-04T07:28:27.374Z,990.17
2018-01-04T07:29:07.906Z,990.14
2018-01-04T07:29:48.418Z,990.1
2018-01-04T07:30:28.982Z,990.11
2018-01-04T07:31:09.504Z,990.1
2018-01-04T07:31:50.059Z,990.04
2018-01-04T07:32:30.587Z,990.02
2018-01-04T07:33:11.109Z,990.02
2018-01-04T07:33:51.653Z,990.02
2018-01-04T07:34:32.165Z,989.99
2018-01-04T07:35:12.717Z,989.95
2018-01-04T07:35:53.261Z,989.95
2018-01-04T07:36:33.806Z,989.88
2018-01-04T07:37:14.379Z,989.95
2018-01-04T07:37:54.945Z,989.92
2018-01-04T07:38:35.493Z,989.88
2018-01-04T07:39:16.013Z,989.88
2018-01-04T07:39:56.557Z,989.9
2018-01-04T07:40:37.123Z,989.9
2018-01-04T07:41:17.648Z,989.92
2018-01-04T07:41:59.170Z,989.85
2018-01-04T07:42:40.530Z,989.82
2018-01-04T07:43:21.074Z,989.83
2018-01-04T07:44:01.620Z,989.83
2018-01-04T07:44:42.260Z,989.86
2018-01-04T07:45:22.738Z,989.81
2018-01-04T07:46:03.321Z,989.76
2018-01-04T07:46:43.859Z,989.8
2018-01-04T07:47:24.383Z,989.81
2018-01-04T07:48:04.844Z,989.76
2018-01-04T07:48:45.410Z,989.77
2018-01-04T07:49:26.015Z,989.81
2018-01-04T07:50:06.507Z,989.83
2018-01-04T07:50:47.046Z,989.76
2018-01-04T07:51:27.566Z,989.72
2018-01-04T07:52:08.076Z,989.72
2018-01-04T07:52:48.675Z,989.69
2018-01-04T07:53:29.173Z,989.65
2018-01-04T07:54:09.676Z,989.63
2018-01-04T07:54:50.236Z,989.67
2018-01-04T07:55:30.784Z,989.68
2018-01-04T07:56:11.270Z,989.68
2018-01-04T07:56:52.705Z,989.65
2018-01-04T07:57:33.229Z,989.61
2018-01-04T07:58:13.665Z,989.59
2018-01-04T07:58:54.202Z,989.62
2018-01-04T07:59:34.796Z,989.62
2018-01-04T08:00:15.516Z,989.59
2018-01-04T08:00:56.925Z,989.58
2018-01-04T08:01:37.480Z,989.58
2018-01-04T08:02:18.040Z,989.61
2018-01-04T08:02:58.584Z,989.62
2018-01-04T08:03:39.248Z,989.6
2018-01-04T08:04:19.793Z,989.58
2018-01-04T08:05:00.290Z,989.59
2018-01-04T08:05:40.854Z,989.53
2018-01-04T08:06:21.351Z,989.55
2018-01-04T08:07:02.034Z,989.56
2018-01-04T08:07:42.566Z,989.58
2018-01-04T08:08:23.081Z,989.52
2018-01-04T08:09:03.642Z,989.57
2018-01-04T08:09:44.170Z,989.52
2018-01-04T08:10:24.736Z,989.54
2018-01-04T08:11:05.216Z,989.48
2018-01-04T08:11:45.836Z,989.5
2018-01-04T08:12:26.413Z,989.52
2018-01-04T08:13:06.876Z,989.53
2018-01-04T08:13:47.425Z,989.51
2018-01-04T08:14:27.975Z,989.51
2018-01-04T08:15:08.568Z,989.52
2018-01-04T08:15:49.084Z,989.49
2018-01-04T08:16:29.626Z,989.48
2018-01-04T08:17:10.201Z,989.51
2018-01-04T08:17:50.723Z,989.46
2018-01-04T08:18:31.248Z,989.48
2018-01-04T08:19:11.838Z,989.58
2018-01-04T08:19:52.374Z,989.54
2018-01-04T08:20:32.886Z,989.58
2018-01-04T08:21:13.455Z,989.63
2018-01-04T08:21:54.178Z,989.6
2018-01-04T08:22:35.178Z,989.6
2018-01-04T08:23:15.689Z,989.6
2018-01-04T08:23:56.277Z,989.63
2018-01-04T08:24:36.836Z,989.59
2018-01-04T08:25:17.468Z,989.57
2018-01-04T08:25:57.963Z,989.59
2018-01-04T08:26:38.550Z,989.63
2018-01-04T08:27:19.087Z,989.63
2018-01-04T08:27:59.611Z,989.59